createdAt,value
2024-01-20T00:00:32.460Z,17.10
2024-01-20T00:03:01.730Z,19.65
2024-01-20T00:05:31.111Z,20.20
2024-01-20T00:08:02.115Z,24.58
2024-01-20T00:10:31.558Z,15.27
2024-01-20T00:13:00.976Z,18.95
2024-01-20T00:15:30.293Z,18.95
2024-01-20T00:17:59.508Z,22.10
2024-01-20T00:20:29.086Z,31.25
2024-01-20T00:22:58.341Z,26.77
2024-01-20T00:25:28.956Z,29.30
2024-01-20T00:27:58.294Z,23.90
2024-01-20T00:30:28.105Z,30.17
2024-01-20T00:32:57.865Z,25.98
2024-01-20T00:35:27.594Z,20.70
2024-01-20T00:37:57.138Z,31.45
2024-01-20T00:40:26.308Z,38.88
2024-01-20T00:42:57.031Z,54.60
2024-01-20T00:45:26.769Z,48.50
2024-01-20T00:47:56.090Z,51.47
2024-01-20T00:50:25.863Z,45.50
2024-01-20T00:52:55.129Z,47.35
2024-01-20T00:55:24.327Z,48.72
2024-01-20T00:57:53.694Z,51.35
2024-01-20T01:00:24.566Z,50.15
2024-01-20T01:02:54.013Z,54.85
2024-01-20T01:05:23.550Z,58.90
2024-01-20T01:07:53.394Z,50.20
2024-01-20T01:10:22.890Z,48.20
2024-01-20T01:12:52.261Z,43.85
2024-01-20T01:15:21.570Z,27.10
2024-01-20T01:17:52.537Z,23.77
2024-01-20T01:20:21.958Z,26.25
2024-01-20T01:22:51.966Z,21.02
2024-01-20T01:25:23.925Z,24.52
2024-01-20T01:27:53.049Z,26.05
2024-01-20T01:30:22.337Z,31.77
2024-01-20T01:32:53.109Z,30.73
2024-01-20T01:35:22.284Z,26.55
2024-01-20T01:37:51.557Z,45.00
2024-01-20T01:40:20.765Z,36.10
2024-01-20T01:42:49.979Z,32.83
2024-01-20T01:45:19.283Z,48.28
2024-01-20T01:47:48.559Z,51.35
2024-01-20T01:50:19.849Z,58.35
2024-01-20T01:52:49.777Z,53.53
2024-01-20T01:55:19.322Z,57.55
2024-01-20T01:57:49.861Z,58.55
2024-01-20T02:00:19.232Z,86.28
2024-01-20T02:02:49.013Z,70.57
2024-01-20T02:05:19.746Z,53.03
2024-01-20T02:07:50.653Z,48.65
2024-01-20T02:10:20.260Z,33.30
2024-01-20T02:12:50.338Z,26.15
2024-01-20T02:15:19.860Z,28.83
2024-01-20T02:17:53.505Z,36.60
2024-01-20T02:20:24.844Z,32.58
2024-01-20T02:22:55.451Z,34.60
2024-01-20T02:25:25.126Z,32.92
2024-01-20T02:27:54.508Z,36.03
2024-01-20T02:30:23.724Z,37.53
2024-01-20T02:32:53.258Z,32.92
2024-01-20T02:35:22.834Z,40.10
2024-01-20T02:37:52.025Z,34.38
2024-01-20T02:40:22.806Z,36.85
2024-01-20T02:42:51.955Z,45.85
2024-01-20T02:45:22.001Z,40.03
2024-01-20T02:47:52.958Z,36.45
2024-01-20T02:50:22.434Z,31.02
2024-01-20T02:52:52.448Z,31.55
2024-01-20T02:55:23.047Z,37.90
2024-01-20T02:57:52.518Z,32.88
2024-01-20T03:00:22.000Z,38.17
2024-01-20T03:02:51.368Z,37.63
2024-01-20T03:05:20.568Z,31.65
2024-01-20T03:07:50.058Z,28.55
2024-01-20T03:10:19.607Z,27.80
2024-01-20T03:12:50.525Z,27.45
2024-01-20T03:15:20.023Z,24.27
2024-01-20T03:17:49.821Z,22.33
2024-01-20T03:20:19.101Z,25.10
2024-01-20T03:22:48.215Z,26.35
2024-01-20T03:25:17.689Z,20.88
2024-01-20T03:27:47.813Z,20.75
2024-01-20T03:30:18.766Z,16.73
2024-01-20T03:32:48.264Z,18.67
2024-01-20T03:35:17.753Z,19.27
2024-01-20T03:37:46.914Z,19.88
2024-01-20T03:40:16.154Z,16.65
2024-01-20T03:42:45.273Z,21.10
2024-01-20T03:45:14.447Z,22.67
2024-01-20T03:47:44.972Z,15.50
2024-01-20T03:50:14.274Z,20.25
2024-01-20T03:52:44.573Z,12.85
2024-01-20T03:55:14.925Z,19.58
2024-01-20T03:57:44.322Z,22.95
2024-01-20T04:00:14.229Z,26.58
2024-01-20T04:02:44.845Z,38.78
2024-01-20T04:05:14.154Z,36.53
2024-01-20T04:07:43.871Z,24.88
2024-01-20T04:10:13.112Z,26.95
2024-01-20T04:12:43.632Z,25.58
2024-01-20T04:15:13.392Z,26.60
2024-01-20T04:17:42.714Z,26.00
2024-01-20T04:20:14.070Z,22.42
2024-01-20T04:22:43.414Z,19.15
2024-01-20T04:25:13.071Z,28.98
2024-01-20T04:27:42.543Z,23.10
2024-01-20T04:30:13.987Z,29.67
2024-01-20T04:32:43.260Z,19.88
2024-01-20T04:35:13.904Z,28.77
2024-01-20T04:37:43.270Z,21.42
2024-01-20T04:40:13.034Z,27.92
2024-01-20T04:42:42.406Z,24.00
2024-01-20T04:45:14.894Z,19.83
2024-01-20T04:47:44.291Z,20.10
2024-01-20T04:50:15.460Z,23.98
2024-01-20T04:52:44.789Z,24.50
2024-01-20T04:55:14.066Z,30.05
2024-01-20T04:57:43.195Z,27.52
2024-01-20T05:00:13.011Z,24.90
2024-01-20T05:02:42.151Z,24.63
2024-01-20T05:05:11.796Z,26.77
2024-01-20T05:07:42.380Z,21.05
2024-01-20T05:10:12.080Z,26.92
2024-01-20T05:12:41.396Z,19.00
2024-01-20T05:15:13.185Z,20.52
2024-01-20T05:17:42.632Z,19.17
2024-01-20T05:20:15.481Z,25.83
2024-01-20T05:22:46.177Z,15.50
2024-01-20T05:25:15.554Z,14.57
2024-01-20T05:27:44.650Z,13.23
2024-01-20T05:30:15.006Z,14.88
2024-01-20T05:32:45.145Z,17.70
2024-01-20T05:35:15.082Z,13.02
2024-01-20T05:37:45.690Z,13.00
2024-01-20T05:40:15.299Z,20.15
2024-01-20T05:42:44.681Z,7.45
2024-01-20T05:45:15.853Z,9.48
2024-01-20T05:47:45.345Z,21.45
2024-01-20T05:50:14.761Z,19.15
2024-01-20T05:52:46.524Z,13.52
2024-01-20T05:55:15.965Z,15.80
2024-01-20T05:57:45.197Z,14.95
2024-01-20T06:00:16.261Z,10.20
2024-01-20T06:02:45.843Z,10.80
2024-01-20T06:05:15.609Z,11.60
2024-01-20T06:07:45.135Z,16.27
2024-01-20T06:10:16.009Z,8.60
2024-01-20T06:12:45.549Z,11.13
2024-01-20T06:15:14.809Z,10.70
2024-01-20T06:17:44.193Z,5.55
2024-01-20T06:20:13.874Z,10.07
2024-01-20T06:22:43.044Z,12.07
2024-01-20T06:25:12.534Z,21.20
2024-01-20T06:27:48.362Z,12.25
2024-01-20T06:30:20.542Z,12.43
2024-01-20T06:32:49.804Z,11.93
2024-01-20T06:35:19.218Z,9.15
2024-01-20T06:37:48.415Z,14.63
2024-01-20T06:40:19.872Z,14.52
2024-01-20T06:42:52.822Z,16.00
2024-01-20T06:45:22.187Z,14.60
2024-01-20T06:47:52.369Z,17.15
2024-01-20T06:50:22.511Z,17.38
2024-01-20T06:52:51.876Z,15.57
2024-01-20T06:55:21.668Z,19.40
2024-01-20T06:57:52.270Z,16.58
2024-01-20T07:00:24.518Z,19.65
2024-01-20T07:02:55.349Z,16.20
2024-01-20T07:05:24.725Z,20.23
2024-01-20T07:07:55.850Z,8.65
2024-01-20T07:10:25.912Z,17.58
2024-01-20T07:12:57.060Z,16.45
2024-01-20T07:15:26.342Z,17.60
2024-01-20T07:17:57.853Z,16.25
2024-01-20T07:20:27.551Z,25.80
2024-01-20T07:22:56.811Z,21.50
2024-01-20T07:25:26.429Z,20.27
2024-01-20T07:27:57.374Z,21.20
2024-01-20T07:30:28.360Z,15.82
2024-01-20T07:33:00.385Z,15.40
2024-01-20T07:35:29.697Z,20.33
2024-01-20T07:37:58.996Z,19.52
2024-01-20T07:40:28.275Z,16.27
2024-01-20T07:42:59.056Z,18.40
2024-01-20T07:45:29.308Z,20.08
2024-01-20T07:47:59.005Z,16.92
2024-01-20T07:50:31.637Z,16.00
2024-01-20T07:53:01.301Z,16.65
2024-01-20T07:55:30.845Z,25.25
2024-01-20T07:58:01.698Z,17.42
2024-01-20T08:00:36.514Z,17.67
2024-01-20T08:03:06.595Z,19.63
2024-01-20T08:05:36.011Z,23.48
2024-01-20T08:08:05.784Z,25.02
2024-01-20T08:10:35.014Z,17.80
2024-01-20T08:13:05.859Z,20.23
2024-01-20T08:15:35.220Z,15.95
2024-01-20T08:18:07.187Z,21.00
2024-01-20T08:20:37.407Z,18.38
2024-01-20T08:23:06.598Z,18.48
2024-01-20T08:25:35.972Z,26.38
2024-01-20T08:28:07.247Z,23.67
2024-01-20T08:30:37.263Z,20.02
2024-01-20T08:33:09.193Z,9.45
2024-01-20T08:35:39.241Z,10.57
2024-01-20T08:38:08.975Z,23.13
2024-01-20T08:40:39.344Z,18.83
2024-01-20T08:43:10.042Z,19.33
2024-01-20T08:45:39.943Z,14.50
2024-01-20T08:48:09.873Z,22.38
2024-01-20T08:50:40.185Z,21.77
2024-01-20T08:53:09.865Z,20.73
2024-01-20T08:55:39.559Z,19.00
2024-01-20T08:58:14.953Z,16.35
2024-01-20T09:00:51.462Z,16.92
2024-01-20T09:03:21.577Z,15.88
2024-01-20T09:05:51.999Z,20.70
2024-01-20T09:08:23.711Z,14.32
2024-01-20T09:10:54.163Z,10.55
2024-01-20T09:13:28.011Z,17.83
2024-01-20T09:15:57.841Z,13.50
2024-01-20T09:18:27.404Z,7.88
2024-01-20T09:20:59.751Z,17.63
2024-01-20T09:23:29.027Z,12.10
2024-01-20T09:25:58.214Z,14.23
2024-01-20T09:28:29.185Z,14.75
2024-01-20T09:30:58.797Z,17.83
2024-01-20T09:33:28.783Z,16.98
2024-01-20T09:35:58.544Z,17.20
2024-01-20T09:38:33.000Z,15.73
2024-01-20T09:41:02.422Z,11.10
2024-01-20T09:43:35.832Z,13.05
2024-01-20T09:46:06.146Z,14.57
2024-01-20T09:48:35.784Z,13.43
2024-01-20T09:51:05.414Z,11.85
2024-01-20T09:53:36.109Z,12.90
2024-01-20T09:56:05.784Z,8.77
2024-01-20T09:58:39.518Z,13.13
2024-01-20T10:01:09.298Z,10.60
2024-01-20T10:03:44.906Z,6.57
2024-01-20T10:06:14.100Z,11.23
2024-01-20T10:08:43.518Z,11.25
2024-01-20T10:11:13.119Z,12.18
2024-01-20T10:13:43.836Z,10.10
2024-01-20T10:16:13.091Z,13.23
2024-01-20T10:18:42.531Z,16.45
2024-01-20T10:21:11.913Z,13.00
2024-01-20T10:23:44.005Z,15.25
2024-01-20T10:26:13.410Z,16.60
2024-01-20T10:28:45.183Z,17.95
2024-01-20T10:31:14.676Z,10.15
2024-01-20T10:33:46.218Z,16.08
2024-01-20T10:36:20.454Z,14.68
2024-01-20T10:38:51.901Z,10.00
2024-01-20T10:41:24.764Z,9.50
2024-01-20T10:44:03.043Z,15.98
2024-01-20T10:46:38.755Z,8.35
2024-01-20T10:49:13.050Z,10.07
2024-01-20T10:51:44.541Z,8.40
2024-01-20T10:54:15.868Z,16.50
2024-01-20T10:56:45.891Z,14.55
2024-01-20T10:59:19.306Z,11.88
2024-01-20T11:01:49.741Z,7.05
2024-01-20T11:04:24.029Z,13.32
2024-01-20T11:06:55.252Z,15.55
2024-01-20T11:09:24.940Z,8.80
2024-01-20T11:12:02.992Z,9.35
2024-01-20T11:14:34.285Z,16.85
2024-01-20T11:17:12.116Z,9.40
2024-01-20T11:19:41.764Z,12.60
2024-01-20T11:22:32.084Z,9.27
2024-01-20T11:25:07.257Z,12.80
2024-01-20T11:30:26.166Z,7.47
2024-01-20T11:32:56.031Z,14.48
2024-01-20T11:35:26.930Z,12.55
2024-01-20T11:37:58.737Z,12.18
2024-01-20T11:40:33.863Z,14.15
2024-01-20T11:43:08.389Z,7.00
2024-01-20T11:45:39.836Z,13.73
2024-01-20T11:48:13.920Z,14.05
2024-01-20T11:50:44.724Z,9.57
2024-01-20T11:53:14.569Z,12.55
2024-01-20T11:55:54.606Z,6.63
2024-01-20T11:58:24.378Z,10.52
2024-01-20T12:00:56.690Z,17.35
2024-01-20T12:03:27.331Z,14.02
2024-01-20T12:05:58.436Z,17.88
2024-01-20T12:08:27.743Z,12.02
2024-01-20T12:10:57.014Z,11.57
2024-01-20T12:13:29.630Z,9.98
2024-01-20T12:16:00.767Z,13.63
2024-01-20T12:18:30.233Z,8.82
2024-01-20T12:21:01.052Z,7.13
2024-01-20T12:23:32.280Z,13.73
2024-01-20T12:26:02.033Z,18.85
2024-01-20T12:28:31.424Z,10.55
2024-01-20T12:31:02.068Z,11.23
2024-01-20T12:33:31.386Z,9.32
2024-01-20T12:36:00.576Z,8.18
2024-01-20T12:38:29.821Z,11.68
2024-01-20T12:40:59.087Z,15.23
2024-01-20T12:43:29.696Z,12.85
2024-01-20T12:45:58.933Z,10.00
2024-01-20T12:48:32.196Z,10.32
2024-01-20T12:51:02.694Z,9.52
2024-01-20T12:53:32.116Z,10.63
2024-01-20T12:56:01.719Z,15.13
2024-01-20T12:58:31.586Z,8.52
2024-01-20T13:01:00.851Z,11.80
2024-01-20T13:03:31.454Z,8.75
2024-01-20T13:06:00.705Z,7.43
2024-01-20T13:08:29.991Z,14.27
2024-01-20T13:10:59.116Z,10.40
2024-01-20T13:13:29.718Z,9.93
2024-01-20T13:15:59.274Z,9.23
2024-01-20T13:18:28.715Z,11.38
2024-01-20T13:21:00.011Z,7.05
2024-01-20T13:23:30.352Z,7.38
2024-01-20T13:26:01.637Z,11.98
2024-01-20T13:28:36.264Z,7.72
2024-01-20T13:31:09.155Z,15.77
2024-01-20T13:33:40.538Z,11.13
2024-01-20T13:36:11.512Z,12.13
2024-01-20T13:38:41.080Z,12.40
2024-01-20T13:41:10.617Z,11.70
2024-01-20T13:43:39.965Z,12.18
2024-01-20T13:46:09.244Z,12.75
2024-01-20T13:48:38.671Z,11.98
2024-01-20T13:51:08.005Z,9.95
2024-01-20T13:53:38.665Z,10.70
2024-01-20T13:56:08.492Z,13.88
2024-01-20T13:58:37.642Z,8.05
2024-01-20T14:01:07.335Z,15.52
2024-01-20T14:03:36.777Z,15.27
2024-01-20T14:06:07.347Z,7.30
2024-01-20T14:08:36.986Z,11.73
2024-01-20T14:11:07.980Z,11.25
2024-01-20T14:13:37.710Z,11.18
2024-01-20T14:16:08.459Z,10.77
2024-01-20T14:18:37.771Z,18.98
2024-01-20T14:21:07.539Z,14.40
2024-01-20T14:23:37.992Z,11.40
2024-01-20T14:26:09.030Z,11.88
2024-01-20T14:28:38.983Z,13.43
2024-01-20T14:31:09.138Z,7.47
2024-01-20T14:33:39.076Z,4.40
2024-01-20T14:36:09.270Z,12.85
2024-01-20T14:38:38.924Z,13.02
2024-01-20T14:41:09.597Z,16.95
2024-01-20T14:43:39.510Z,18.52
2024-01-20T14:46:08.999Z,14.00
2024-01-20T14:48:39.671Z,15.38
2024-01-20T14:51:09.284Z,14.55
2024-01-20T14:53:38.448Z,12.35
2024-01-20T14:56:15.457Z,12.30
2024-01-20T14:58:53.919Z,12.45
2024-01-20T15:01:30.168Z,10.40
2024-01-20T15:03:59.678Z,11.77
2024-01-20T15:06:29.971Z,9.85
2024-01-20T15:08:59.807Z,14.18
2024-01-20T15:11:32.657Z,16.27
2024-01-20T15:14:01.930Z,15.40
2024-01-20T15:16:31.214Z,8.02
2024-01-20T15:19:04.795Z,4.50
2024-01-20T15:21:34.226Z,5.93
2024-01-20T15:24:04.760Z,11.85
2024-01-20T15:26:35.828Z,12.30
2024-01-20T15:29:05.240Z,12.18
2024-01-20T15:31:34.403Z,12.02
2024-01-20T15:34:04.000Z,17.73
2024-01-20T15:36:33.416Z,13.90
2024-01-20T15:39:03.241Z,12.57
2024-01-20T15:41:32.655Z,14.90
2024-01-20T15:44:03.444Z,10.32
2024-01-20T15:46:32.670Z,15.95
2024-01-20T15:49:02.336Z,12.07
2024-01-20T15:51:31.916Z,12.20
2024-01-20T15:54:01.310Z,11.77
2024-01-20T15:56:32.842Z,14.10
2024-01-20T15:59:03.584Z,12.02
2024-01-20T16:01:33.086Z,8.15
2024-01-20T16:04:04.511Z,15.70
2024-01-20T16:06:34.076Z,9.63
2024-01-20T16:09:06.431Z,8.95
2024-01-20T16:11:36.485Z,14.82
2024-01-20T16:14:07.213Z,10.38
2024-01-20T16:16:36.427Z,11.30
2024-01-20T16:19:05.855Z,5.78
2024-01-20T16:21:37.037Z,16.25
2024-01-20T16:24:06.949Z,12.82
2024-01-20T16:26:36.128Z,10.52
2024-01-20T16:29:07.252Z,11.40
2024-01-20T16:31:38.942Z,12.02
2024-01-20T16:34:08.550Z,11.30
2024-01-20T16:36:43.253Z,7.95
2024-01-20T16:39:12.688Z,12.68
2024-01-20T16:41:42.092Z,11.55
2024-01-20T16:44:12.952Z,5.60
2024-01-20T16:46:42.179Z,8.27
2024-01-20T16:49:11.807Z,13.13
2024-01-20T16:51:41.361Z,10.13
2024-01-20T16:54:10.742Z,9.40
2024-01-20T16:56:40.035Z,15.70
2024-01-20T16:59:09.437Z,15.23
2024-01-20T17:01:40.417Z,19.35
2024-01-20T17:04:09.942Z,12.32
2024-01-20T17:06:39.500Z,10.10
2024-01-20T17:09:09.136Z,19.23
2024-01-20T17:11:40.064Z,19.73
2024-01-20T17:14:09.403Z,18.40
2024-01-20T17:16:40.378Z,14.32
2024-01-20T17:19:10.501Z,17.40
2024-01-20T17:21:39.970Z,11.48
2024-01-20T17:24:09.598Z,13.55
2024-01-20T17:26:38.905Z,15.48
2024-01-20T17:29:08.284Z,16.10
2024-01-20T17:31:40.169Z,14.95
2024-01-20T17:34:10.839Z,9.50
2024-01-20T17:36:40.484Z,13.90
2024-01-20T17:39:10.809Z,13.45
2024-01-20T17:41:41.672Z,6.75
2024-01-20T17:44:11.276Z,11.00
2024-01-20T17:46:42.190Z,12.43
2024-01-20T17:49:12.085Z,19.67
2024-01-20T17:51:42.603Z,12.63
2024-01-20T17:54:12.031Z,7.28
2024-01-20T17:56:41.219Z,12.05
2024-01-20T17:59:10.727Z,8.70
2024-01-20T18:01:41.370Z,10.07
2024-01-20T18:04:10.901Z,13.70
2024-01-20T18:06:40.163Z,10.68
2024-01-20T18:09:09.890Z,9.80
2024-01-20T18:11:39.233Z,14.63
2024-01-20T18:14:08.576Z,8.25
2024-01-20T18:16:39.727Z,11.10
2024-01-20T18:19:11.105Z,8.45
2024-01-20T18:21:41.675Z,5.68
2024-01-20T18:24:11.063Z,10.32
2024-01-20T18:26:40.500Z,5.60
2024-01-20T18:29:09.684Z,5.30
2024-01-20T18:31:39.069Z,10.35
2024-01-20T18:34:09.918Z,10.30
2024-01-20T18:36:39.289Z,12.52
2024-01-20T18:39:11.531Z,8.40
2024-01-20T18:41:41.607Z,6.30
2024-01-20T18:44:11.210Z,4.55
2024-01-20T18:46:40.410Z,6.22
2024-01-20T18:49:11.116Z,7.47
2024-01-20T18:51:40.399Z,9.18
2024-01-20T18:54:09.787Z,9.93
2024-01-20T18:56:39.178Z,9.30
2024-01-20T18:59:09.697Z,7.03
2024-01-20T19:01:40.702Z,7.30
2024-01-20T19:04:11.568Z,11.20
2024-01-20T19:06:41.145Z,8.95
2024-01-20T19:09:10.809Z,8.30
2024-01-20T19:11:40.139Z,9.00
2024-01-20T19:14:09.350Z,8.60
2024-01-20T19:16:38.565Z,4.50
2024-01-20T19:19:08.946Z,5.45
2024-01-20T19:21:41.913Z,4.82
2024-01-20T19:24:11.818Z,6.80
2024-01-20T19:26:44.123Z,6.78
2024-01-20T19:29:13.576Z,7.63
2024-01-20T19:31:42.785Z,4.47
2024-01-20T19:34:12.752Z,6.70
2024-01-20T19:36:44.244Z,4.53
2024-01-20T19:39:13.713Z,6.20
2024-01-20T19:41:42.995Z,3.25
2024-01-20T19:44:12.294Z,5.15
2024-01-20T19:46:41.227Z,5.45
2024-01-20T19:49:11.165Z,8.27
2024-01-20T19:51:43.365Z,5.97
2024-01-20T19:54:13.487Z,6.57
2024-01-20T19:56:45.080Z,6.30
2024-01-20T19:59:16.932Z,2.72
2024-01-20T20:01:47.331Z,6.28
2024-01-20T20:04:18.522Z,3.17
2024-01-20T20:06:50.729Z,4.03
2024-01-20T20:09:21.903Z,5.93
2024-01-20T20:11:51.128Z,6.00
2024-01-20T20:14:26.313Z,4.60
2024-01-20T20:16:56.225Z,7.60
2024-01-20T20:19:25.588Z,3.28
2024-01-20T20:21:56.190Z,3.67
2024-01-20T20:24:25.764Z,2.60
2024-01-20T20:26:57.549Z,3.55
2024-01-20T20:29:26.878Z,6.72
2024-01-20T20:31:56.052Z,6.05
2024-01-20T20:34:25.587Z,7.00
2024-01-20T20:36:58.136Z,5.97
2024-01-20T20:39:27.385Z,5.32
2024-01-20T20:41:56.506Z,4.78
2024-01-20T20:44:25.718Z,4.68
2024-01-20T20:47:01.778Z,3.65
2024-01-20T20:49:32.304Z,4.45
2024-01-20T20:52:03.108Z,9.02
2024-01-20T20:54:32.345Z,5.72
2024-01-20T20:57:01.949Z,4.60
2024-01-20T20:59:31.167Z,4.55
2024-01-20T21:02:01.112Z,8.45
2024-01-20T21:04:30.511Z,5.47
2024-01-20T21:07:01.267Z,1.73
2024-01-20T21:09:32.177Z,4.07
2024-01-20T21:12:01.381Z,5.18
2024-01-20T21:14:30.933Z,5.50
2024-01-20T21:17:00.424Z,4.15
2024-01-20T21:19:30.261Z,5.88
2024-01-20T21:21:59.605Z,11.48
2024-01-20T21:24:28.896Z,9.50
2024-01-20T21:26:59.620Z,4.38
2024-01-20T21:29:28.757Z,4.85
2024-01-20T21:31:57.868Z,2.15
2024-01-20T21:34:27.255Z,2.92
2024-01-20T21:36:56.574Z,5.43
2024-01-20T21:39:25.703Z,3.30
2024-01-20T21:41:54.928Z,4.18
2024-01-20T21:44:27.015Z,4.25
2024-01-20T21:46:56.305Z,1.90
2024-01-20T21:49:25.516Z,3.72
2024-01-20T21:51:58.854Z,5.10
2024-01-20T21:54:29.521Z,6.85
2024-01-20T21:56:59.113Z,5.68
2024-01-20T21:59:29.888Z,4.50
2024-01-20T22:01:59.102Z,9.23
2024-01-20T22:04:28.202Z,6.30
2024-01-20T22:06:57.348Z,11.02
2024-01-20T22:09:26.541Z,2.92
2024-01-20T22:11:55.663Z,2.40
2024-01-20T22:14:24.833Z,5.13
2024-01-20T22:16:55.385Z,4.20
2024-01-20T22:19:24.621Z,4.75
2024-01-20T22:21:53.914Z,4.63
2024-01-20T22:24:23.114Z,5.32
2024-01-20T22:26:52.355Z,8.77
2024-01-20T22:29:30.619Z,4.75
2024-01-20T22:32:03.090Z,3.50
2024-01-20T22:34:33.314Z,3.03
2024-01-20T22:37:03.285Z,4.88
2024-01-20T22:39:32.439Z,3.65
2024-01-20T22:42:02.430Z,4.03
2024-01-20T22:44:31.532Z,3.97
2024-01-20T22:47:00.736Z,5.15
2024-01-20T22:49:31.857Z,20.90
2024-01-20T22:52:01.289Z,4.88
2024-01-20T22:54:33.497Z,3.50
2024-01-20T22:57:05.552Z,4.85
2024-01-20T22:59:34.727Z,5.30
2024-01-20T23:02:04.156Z,9.00
2024-01-20T23:04:35.045Z,4.15
2024-01-20T23:07:04.299Z,5.40
2024-01-20T23:09:33.561Z,4.65
2024-01-20T23:12:03.416Z,7.25
2024-01-20T23:14:36.475Z,3.45
2024-01-20T23:17:06.054Z,6.20
2024-01-20T23:19:36.927Z,3.35
2024-01-20T23:22:06.352Z,7.47
2024-01-20T23:24:35.602Z,3.20
2024-01-20T23:27:05.350Z,11.48
2024-01-20T23:29:34.522Z,5.88
2024-01-20T23:32:03.567Z,6.10
2024-01-20T23:34:33.676Z,5.05
2024-01-20T23:37:04.219Z,4.32
2024-01-20T23:39:33.345Z,4.40
2024-01-20T23:42:02.635Z,4.43
2024-01-20T23:44:31.809Z,4.75
2024-01-20T23:47:01.325Z,4.90
2024-01-20T23:49:30.681Z,6.43
2024-01-20T23:51:59.870Z,3.63
2024-01-20T23:54:30.554Z,2.30
2024-01-20T23:57:00.891Z,8.43
2024-01-20T23:59:30.557Z,7.45
